Time;durP1;ratioP1;P1;durP2;ratioP2;P2;SDS_P1;SDS_P2;PMS_P1;PMS_P2;Temp;Humidity;BMP_temperature;BMP_pressure;BME280_temperature;BME280_humidity;BME280_pressure;Samples;Min_cycle;Max_cycle;Signal;HPM_P1;HPM_P2
2023/06/18 00:00:33;;;;;;;8.65;6.90;;;;;;;14.17;100.00;101324.94;5064634;28;20242;-51
2023/06/18 00:02:59;;;;;;;6.15;5.65;;;;;;;14.06;100.00;101317.34;5055826;28;20264;-50
2023/06/18 00:05:24;;;;;;;6.50;5.88;;;;;;;13.98;100.00;101322.19;5062368;28;20310;-51
2023/06/18 00:07:50;;;;;;;6.68;5.90;;;;;;;13.96;100.00;101314.16;5056016;28;20618;-50
2023/06/18 00:10:15;;;;;;;7.10;6.40;;;;;;;13.95;100.00;101316.91;5063026;28;20711;-50
2023/06/18 00:12:41;;;;;;;6.05;5.55;;;;;;;14.07;100.00;101320.91;5058798;28;20282;-53
2023/06/18 00:15:07;;;;;;;6.75;6.03;;;;;;;13.87;100.00;101314.56;5066683;28;20270;-51
2023/06/18 00:17:32;;;;;;;6.78;6.22;;;;;;;13.80;100.00;101305.03;5056343;28;20229;-51
2023/06/18 00:19:58;;;;;;;6.82;6.03;;;;;;;13.83;100.00;101306.69;5059271;28;20198;-51
2023/06/18 00:22:23;;;;;;;6.38;5.78;;;;;;;13.97;100.00;101317.72;5061574;28;20191;-51
2023/06/18 00:24:49;;;;;;;5.88;5.38;;;;;;;13.95;100.00;101312.41;5056369;28;20202;-53
2023/06/18 00:27:14;;;;;;;6.22;5.65;;;;;;;13.79;100.00;101303.25;5057851;28;20178;-50
2023/06/18 00:29:40;;;;;;;6.30;5.80;;;;;;;13.84;100.00;101308.44;5059380;28;20236;-52
2023/06/18 00:32:07;;;;;;;7.68;6.50;;;;;;;13.81;100.00;101313.00;5058960;28;20194;-51
2023/06/18 00:34:33;;;;;;;6.13;5.60;;;;;;;13.61;100.00;101313.00;5058349;28;20553;-53
2023/06/18 00:37:00;;;;;;;7.00;5.75;;;;;;;13.57;100.00;101306.00;5054928;28;20224;-51
2023/06/18 00:39:25;;;;;;;6.93;5.50;;;;;;;13.71;100.00;101308.09;5059508;28;20203;-53
2023/06/18 00:41:51;;;;;;;5.88;5.38;;;;;;;13.82;100.00;101308.53;5063218;28;20254;-51
2023/06/18 00:44:20;;;;;;;5.95;5.38;;;;;;;13.79;100.00;101305.94;5058968;28;20274;-50
2023/06/18 00:46:51;;;;;;;5.35;4.72;;;;;;;13.80;100.00;101294.25;5058814;28;20183;-53
2023/06/18 00:49:18;;;;;;;6.90;6.30;;;;;;;13.83;100.00;101306.69;5058746;28;20203;-50
2023/06/18 00:51:45;;;;;;;7.40;6.47;;;;;;;13.73;100.00;101311.59;5056495;28;20221;-51
2023/06/18 00:54:15;;;;;;;6.43;5.18;;;;;;;13.80;100.00;101296.94;5057156;28;20642;-52
2023/06/18 00:56:50;;;;;;;5.93;5.43;;;;;;;13.78;100.00;101305.06;5055460;28;20543;-52
2023/06/18 00:59:23;;;;;;;6.03;5.53;;;;;;;13.84;100.00;101309.34;5054647;28;20207;-52
2023/06/18 01:01:53;;;;;;;5.90;5.30;;;;;;;13.77;100.00;101307.81;5061145;28;20166;-52
2023/06/18 01:04:27;;;;;;;6.15;5.55;;;;;;;13.51;100.00;101301.78;5056159;28;20556;-52
2023/06/18 01:06:54;;;;;;;6.18;5.57;;;;;;;13.45;100.00;101315.50;5056864;28;20206;-53
2023/06/18 01:09:25;;;;;;;5.90;5.40;;;;;;;13.30;100.00;101314.31;5058838;28;20222;-53
2023/06/18 01:11:52;;;;;;;8.95;6.13;;;;;;;13.28;100.00;101312.59;5058761;28;20225;-52
2023/06/18 01:14:22;;;;;;;6.07;5.47;;;;;;;13.31;100.00;101307.13;5055111;28;20285;-50
2023/06/18 01:16:53;;;;;;;6.82;6.18;;;;;;;13.25;100.00;101304.66;5049985;28;20585;-51
2023/06/18 01:19:40;;;;;;;6.43;5.47;;;;;;;13.11;100.00;101310.59;5057057;28;20689;-53
2023/06/18 01:22:26;;;;;;;6.15;5.38;;;;;;;13.09;100.00;101302.59;5050460;28;20190;-52
2023/06/18 01:24:57;;;;;;;6.55;5.95;;;;;;;13.20;100.00;101303.00;5065550;28;20183;-52
2023/06/18 01:27:25;;;;;;;6.53;5.93;;;;;;;13.30;100.00;101305.38;5055788;28;20178;-53
2023/06/18 01:29:51;;;;;;;6.18;5.57;;;;;;;13.43;100.00;101303.06;5051731;28;20210;-51
2023/06/18 01:32:19;;;;;;;6.45;5.68;;;;;;;13.40;100.00;101298.66;5058524;28;20260;-52
2023/06/18 01:34:45;;;;;;;5.93;5.32;;;;;;;13.46;100.00;101302.91;5053749;28;20202;-51
2023/06/18 01:37:16;;;;;;;6.47;5.22;;;;;;;13.42;100.00;101296.75;5057585;28;20228;-52
2023/06/18 01:42:55;;;;;;;7.05;6.38;;;;;;;13.19;100.00;101301.28;5909901;22;20222;-50
2023/06/18 01:45:26;;;;;;;7.45;6.80;;;;;;;13.17;100.00;101310.34;5075427;28;20226;-49
2023/06/18 01:47:55;;;;;;;5.88;5.28;;;;;;;13.21;100.00;101312.00;5064582;28;20237;-48
2023/06/18 01:50:25;;;;;;;6.63;6.03;;;;;;;13.17;100.00;101318.44;5060318;28;20211;-48
2023/06/18 01:52:51;;;;;;;6.30;5.70;;;;;;;12.93;100.00;101320.31;5029359;28;20215;-53
2023/06/18 01:55:18;;;;;;;5.63;5.10;;;;;;;13.03;100.00;101313.63;4978732;28;20223;-53
2023/06/18 01:57:45;;;;;;;6.63;6.03;;;;;;;13.11;100.00;101324.06;4927438;28;20218;-48
2023/06/18 02:00:11;;;;;;;6.55;5.95;;;;;;;12.98;100.00;101312.91;4905052;24;20230;-47
2023/06/18 02:02:40;;;;;;;9.35;6.20;;;;;;;13.06;100.00;101318.88;4644575;29;1160020;-47
2023/06/18 02:05:07;;;;;;;6.60;6.00;;;;;;;13.09;100.00;101315.16;4618133;30;20296;-46
2023/06/18 02:07:32;;;;;;;6.18;5.57;;;;;;;12.98;100.00;101311.09;4626767;30;20724;-47
2023/06/18 02:09:58;;;;;;;6.22;5.63;;;;;;;13.07;100.00;101314.34;4635723;30;20218;-47
2023/06/18 02:12:23;;;;;;;6.32;5.68;;;;;;;13.13;100.00;101319.50;4642702;30;20672;-48
2023/06/18 02:14:49;;;;;;;7.82;6.55;;;;;;;12.95;100.00;101316.63;4643474;30;20202;-47
2023/06/18 02:17:15;;;;;;;7.00;6.32;;;;;;;12.91;100.00;101325.75;4642081;30;20197;-48
2023/06/18 02:19:40;;;;;;;7.13;6.43;;;;;;;12.96;100.00;101315.66;4644532;30;20688;-47
2023/06/18 02:22:06;;;;;;;6.40;5.90;;;;;;;12.98;100.00;101324.53;4641099;30;20592;-46
2023/06/18 02:24:32;;;;;;;6.30;5.70;;;;;;;13.00;100.00;101319.13;4644014;30;20696;-49
2023/06/18 02:26:58;;;;;;;7.18;6.57;;;;;;;12.89;100.00;101321.38;4641616;30;20190;-45
2023/06/18 02:29:24;;;;;;;7.38;5.80;;;;;;;12.62;100.00;101324.22;4641294;30;20213;-47
2023/06/18 02:31:49;;;;;;;5.95;5.35;;;;;;;12.74;100.00;101317.47;4640947;30;20560;-47
2023/06/18 02:34:15;;;;;;;6.40;5.82;;;;;;;12.81;100.00;101318.09;4643566;30;20194;-47
2023/06/18 02:36:40;;;;;;;6.60;5.70;;;;;;;12.61;100.00;101311.69;4641638;30;20280;-47
2023/06/18 02:39:09;;;;;;;6.75;6.07;;;;;;;12.73;100.00;101315.72;4642634;30;20627;-49
2023/06/18 02:41:34;;;;;;;6.93;6.25;;;;;;;12.71;100.00;101318.47;4642133;30;20717;-47
2023/06/18 02:44:01;;;;;;;5.68;5.15;;;;;;;12.81;100.00;101323.47;4641868;30;20538;-49
2023/06/18 02:46:26;;;;;;;6.80;6.10;;;;;;;12.75;100.00;101321.91;4642930;30;20206;-50
2023/06/18 02:48:52;;;;;;;7.22;6.63;;;;;;;12.69;100.00;101316.78;4644752;30;20218;-47
2023/06/18 02:51:17;;;;;;;7.88;7.03;;;;;;;12.55;100.00;101322.66;4642207;30;21591;-47
2023/06/18 02:53:43;;;;;;;7.55;6.28;;;;;;;12.55;100.00;101326.25;4643842;30;20539;-47
2023/06/18 02:56:08;;;;;;;6.63;6.03;;;;;;;12.60;100.00;101320.69;4642055;30;20206;-48
2023/06/18 02:58:35;;;;;;;7.38;6.65;;;;;;;12.58;100.00;101322.56;4643637;30;20272;-48
2023/06/18 03:01:02;;;;;;;7.32;6.63;;;;;;;12.43;100.00;101317.78;4651410;30;20770;-49
2023/06/18 03:03:34;;;;;;;7.25;6.55;;;;;;;12.49;100.00;101320.25;4787547;29;20204;-49
2023/06/18 03:06:00;;;;;;;6.75;6.05;;;;;;;12.50;100.00;101317.47;4816346;29;20558;-49
2023/06/18 03:08:26;;;;;;;7.55;6.18;;;;;;;12.41;100.00;101314.28;4825165;29;20188;-51
2023/06/18 03:10:53;;;;;;;8.75;6.25;;;;;;;12.45;100.00;101315.91;4812782;29;20227;-47
2023/06/18 03:13:19;;;;;;;7.63;6.93;;;;;;;12.38;100.00;101312.59;4827251;29;20610;-49
2023/06/18 03:15:48;;;;;;;9.18;7.43;;;;;;;12.34;100.00;101308.25;4830491;29;20210;-46
2023/06/18 03:18:14;;;;;;;8.68;7.88;;;;;;;12.31;100.00;101311.03;4814802;29;20682;-44
2023/06/18 03:20:42;;;;;;;9.63;8.55;;;;;;;12.33;100.00;101310.09;4829359;29;20265;-45
2023/06/18 03:23:08;;;;;;;8.00;7.00;;;;;;;12.46;100.00;101310.50;4815945;29;20286;-46
2023/06/18 03:25:35;;;;;;;8.18;7.00;;;;;;;12.51;100.00;101310.31;4811904;29;20184;-45
2023/06/18 03:28:01;;;;;;;8.73;7.75;;;;;;;12.43;100.00;101320.47;4825110;29;20610;-46
2023/06/18 03:30:29;;;;;;;7.40;6.70;;;;;;;12.52;100.00;101322.81;4811243;29;20683;-45
2023/06/18 03:32:58;;;;;;;7.80;7.10;;;;;;;12.44;100.00;101319.53;4829161;29;20324;-43
2023/06/18 03:35:24;;;;;;;10.15;7.97;;;;;;;12.47;100.00;101330.19;4801193;29;20192;-43
2023/06/18 03:37:50;;;;;;;7.75;6.97;;;;;;;12.40;100.00;101334.91;4812445;29;20188;-44
2023/06/18 03:40:16;;;;;;;8.50;7.50;;;;;;;12.45;100.00;101335.59;4814237;29;20199;-43
2023/06/18 03:42:42;;;;;;;7.88;7.18;;;;;;;12.55;100.00;101333.41;4799508;29;20531;-46
2023/06/18 03:45:10;;;;;;;7.13;6.43;;;;;;;12.53;100.00;101330.81;4831886;29;20279;-43
2023/06/18 03:47:35;;;;;;;9.02;6.70;;;;;;;12.54;100.00;101329.00;4801354;29;20664;-45
2023/06/18 03:50:02;;;;;;;6.40;5.80;;;;;;;12.66;100.00;101336.59;4832465;29;20558;-44
2023/06/18 03:52:28;;;;;;;7.60;6.90;;;;;;;12.73;100.00;101335.41;4830726;29;20236;-45
2023/06/18 03:54:53;;;;;;;8.60;7.05;;;;;;;12.72;100.00;101338.16;4827567;29;20322;-44
2023/06/18 03:57:19;;;;;;;8.98;8.18;;;;;;;12.72;100.00;101339.03;4798622;29;20187;-44
2023/06/18 03:59:45;;;;;;;9.45;8.43;;;;;;;12.75;100.00;101336.22;4802834;29;20232;-45
2023/06/18 04:02:12;;;;;;;7.25;6.65;;;;;;;12.83;100.00;101335.03;4835061;29;21045;-44
2023/06/18 04:04:38;;;;;;;8.80;7.90;;;;;;;12.91;100.00;101333.81;4889039;29;20632;-44
2023/06/18 04:07:04;;;;;;;8.55;7.65;;;;;;;13.01;100.00;101341.50;4892523;29;20186;-43
2023/06/18 04:09:29;;;;;;;8.45;7.65;;;;;;;13.10;100.00;101333.94;4890875;29;20554;-42
2023/06/18 04:11:56;;;;;;;8.27;7.47;;;;;;;13.20;100.00;101338.00;4875490;29;20205;-41
2023/06/18 04:14:22;;;;;;;8.07;7.25;;;;;;;13.23;100.00;101333.44;4890125;29;20178;-42
2023/06/18 04:16:48;;;;;;;7.20;6.53;;;;;;;13.30;100.00;101337.66;4879451;29;20200;-42
2023/06/18 04:19:13;;;;;;;7.88;7.07;;;;;;;13.24;100.00;101329.81;4883145;29;20233;-41
2023/06/18 04:21:39;;;;;;;8.80;7.47;;;;;;;13.26;100.00;101319.88;4875781;29;20521;-43
2023/06/18 04:24:06;;;;;;;8.30;7.13;;;;;;;13.20;100.00;101335.31;4881174;29;20257;-43
2023/06/18 04:26:33;;;;;;;8.82;7.63;;;;;;;13.27;100.00;101318.91;4890537;29;20260;-41
2023/06/18 04:28:58;;;;;;;8.43;7.60;;;;;;;13.37;100.00;101323.88;4879549;29;20240;-42
2023/06/18 04:31:24;;;;;;;8.45;7.65;;;;;;;13.44;100.00;101315.56;4890033;29;20700;-43
2023/06/18 04:33:50;;;;;;;9.02;8.07;;;;;;;13.52;100.00;101325.06;4874850;29;20505;-43
2023/06/18 04:36:15;;;;;;;8.55;7.70;;;;;;;13.52;100.00;101324.19;4878449;29;20185;-41
2023/06/18 04:38:44;;;;;;;9.93;8.10;;;;;;;13.49;100.00;101321.59;4889463;29;20257;-41
2023/06/18 04:41:09;;;;;;;9.75;7.40;;;;;;;13.49;100.00;101335.06;4875121;29;20187;-43
2023/06/18 04:43:36;;;;;;;7.78;7.03;;;;;;;13.69;100.00;101331.56;4873894;29;20272;-42
2023/06/18 04:46:02;;;;;;;9.15;7.90;;;;;;;13.80;100.00;101323.88;4890105;29;20273;-44
2023/06/18 04:48:28;;;;;;;7.63;6.85;;;;;;;13.90;100.00;101327.91;4891364;29;20188;-45
2023/06/18 04:50:53;;;;;;;9.00;8.30;;;;;;;14.05;100.00;101334.44;4875731;29;20228;-43
2023/06/18 04:53:19;;;;;;;10.07;8.00;;;;;;;14.14;100.00;101322.34;4873959;29;20192;-44
2023/06/18 04:55:46;;;;;;;8.57;7.78;;;;;;;14.29;100.00;101339.66;4889726;29;20570;-43
2023/06/18 04:58:13;;;;;;;9.38;8.50;;;;;;;14.45;100.00;101337.13;4889901;29;20219;-42
2023/06/18 05:00:39;;;;;;;13.02;8.95;;;;;;;14.51;100.00;101353.03;4889869;29;20189;-41
2023/06/18 05:03:05;;;;;;;10.65;9.55;;;;;;;14.47;100.00;101354.97;4896742;29;20250;-42
2023/06/18 05:05:31;;;;;;;10.93;9.93;;;;;;;14.45;100.00;101361.38;4925316;29;20195;-43
2023/06/18 05:07:56;;;;;;;10.50;9.50;;;;;;;14.57;100.00;101369.81;4913976;29;20570;-43
2023/06/18 05:10:23;;;;;;;9.68;8.82;;;;;;;14.75;100.00;101370.78;4907943;29;20200;-43
2023/06/18 05:12:49;;;;;;;10.25;9.15;;;;;;;14.95;100.00;101363.56;4922264;29;20240;-41
2023/06/18 05:15:15;;;;;;;15.32;13.73;;;;;;;15.10;100.00;101368.22;4914906;29;20287;-43
2023/06/18 05:17:41;;;;;;;12.50;11.30;;;;;;;15.22;100.00;101359.53;4942450;29;20179;-43
2023/06/18 05:20:11;;;;;;;13.43;12.02;;;;;;;15.30;100.00;101351.03;4906885;29;20207;-42
2023/06/18 05:22:39;;;;;;;15.00;13.20;;;;;;;15.50;100.00;101347.34;4930731;29;20869;-41
2023/06/18 05:25:06;;;;;;;16.38;14.68;;;;;;;15.64;100.00;101346.66;4915199;29;20270;-43
2023/06/18 05:27:33;;;;;;;17.48;14.95;;;;;;;15.86;100.00;101341.91;4914082;29;20195;-43
2023/06/18 05:30:01;;;;;;;20.25;17.55;;;;;;;16.09;100.00;101334.41;4928322;29;20247;-41
2023/06/18 05:32:29;;;;;;;20.48;17.08;;;;;;;16.32;100.00;101343.16;4913492;29;20230;-44
2023/06/18 05:34:57;;;;;;;16.15;13.98;;;;;;;16.17;100.00;101340.28;4926193;29;20183;-43
2023/06/18 05:37:23;;;;;;;19.40;17.27;;;;;;;16.09;100.00;101342.53;4941882;29;20249;-43
2023/06/18 05:40:23;;;;;;;20.42;18.38;;;;;;;16.04;100.00;101347.31;5622749;23;20265;-48
2023/06/18 05:42:49;;;;;;;21.83;19.13;;;;;;;16.13;100.00;101348.66;4960869;28;20201;-49
2023/06/18 05:45:17;;;;;;;21.00;18.90;;;;;;;16.16;100.00;101362.00;4965631;28;20359;-47
2023/06/18 05:47:44;;;;;;;19.30;17.40;;;;;;;16.29;100.00;101349.59;4969922;28;20260;-48
2023/06/18 05:50:13;;;;;;;21.95;19.67;;;;;;;16.36;100.00;101353.72;4972329;28;20675;-47
2023/06/18 05:52:38;;;;;;;18.88;16.83;;;;;;;16.59;100.00;101352.44;4989644;28;20262;-48
2023/06/18 05:55:06;;;;;;;15.90;14.40;;;;;;;16.79;100.00;101343.25;4967164;28;20630;-48
2023/06/18 05:57:32;;;;;;;18.05;15.00;;;;;;;16.95;100.00;101342.41;4992115;28;20376;-49
2023/06/18 05:59:57;;;;;;;19.45;17.23;;;;;;;16.98;100.00;101344.94;4989602;23;20982;-49
2023/06/18 06:02:23;;;;;;;16.98;15.18;;;;;;;17.14;100.00;101347.63;5010160;28;20204;-49
2023/06/18 06:04:48;;;;;;;18.42;15.20;;;;;;;17.21;100.00;101340.91;5013680;28;20176;-50
2023/06/18 06:07:14;;;;;;;13.60;12.15;;;;;;;17.27;100.00;101340.53;5023485;28;20216;-51
2023/06/18 06:09:40;;;;;;;12.60;10.82;;;;;;;17.34;100.00;101341.03;5011248;28;20541;-50
2023/06/18 06:12:06;;;;;;;9.77;8.73;;;;;;;17.71;100.00;101337.91;5022495;28;20282;-49
2023/06/18 06:14:33;;;;;;;13.85;12.55;;;;;;;17.73;100.00;101334.22;5024553;28;20771;-50
2023/06/18 06:16:59;;;;;;;12.95;11.38;;;;;;;17.95;100.00;101323.88;5023312;28;20180;-48
2023/06/18 06:19:26;;;;;;;10.98;9.13;;;;;;;18.27;100.00;101329.13;5000958;28;20579;-47
2023/06/18 06:21:52;;;;;;;11.95;10.75;;;;;;;18.35;100.00;101334.09;5013408;28;20198;-47
2023/06/18 06:24:17;;;;;;;11.77;10.57;;;;;;;18.68;100.00;101315.66;5015601;28;20188;-47
2023/06/18 06:26:43;;;;;;;10.27;7.72;;;;;;;19.17;100.00;101322.44;5018406;28;20176;-47
2023/06/18 06:29:08;;;;;;;10.68;7.57;;;;;;;19.51;100.00;101317.47;5018330;28;20192;-47
2023/06/18 06:31:34;;;;;;;10.15;9.18;;;;;;;19.14;100.00;101314.50;5017451;28;20376;-47
2023/06/18 06:34:00;;;;;;;12.85;11.55;;;;;;;18.48;100.00;101322.38;5013924;28;20173;-48
2023/06/18 06:36:26;;;;;;;15.32;12.77;;;;;;;18.21;100.00;101327.66;5016814;28;20188;-48
2023/06/18 06:38:52;;;;;;;15.70;11.75;;;;;;;18.37;100.00;101326.75;5017093;28;20187;-47
2023/06/18 06:41:18;;;;;;;13.82;11.48;;;;;;;18.78;100.00;101334.94;5024410;28;20181;-48
2023/06/18 06:43:44;;;;;;;12.23;10.98;;;;;;;19.01;100.00;101338.03;5021888;28;20187;-49
2023/06/18 06:46:19;;;;;;;12.43;11.15;;;;;;;19.35;100.00;101339.38;5000568;28;20172;-49
2023/06/18 06:49:07;;;;;;;11.70;9.68;;;;;;;19.56;100.00;101332.47;5020413;28;20259;-48
2023/06/18 06:51:35;;;;;;;11.55;10.02;;;;;;;20.13;100.00;101330.44;5019823;28;20195;-47
2023/06/18 06:54:09;;;;;;;11.77;9.82;;;;;;;20.11;98.96;101332.38;5020841;28;20548;-49
2023/06/18 06:56:35;;;;;;;9.65;8.20;;;;;;;20.23;98.14;101333.41;5019666;28;20219;-49
2023/06/18 06:59:01;;;;;;;8.75;7.88;;;;;;;20.31;95.80;101323.72;5025852;28;20200;-49
2023/06/18 07:01:27;;;;;;;10.40;7.07;;;;;;;20.81;93.40;101331.91;5016706;28;20172;-49
2023/06/18 07:03:53;;;;;;;9.50;7.80;;;;;;;20.94;91.12;101330.03;5018833;28;20207;-50
2023/06/18 07:06:18;;;;;;;8.50;7.65;;;;;;;20.71;88.63;101322.72;5019672;28;20259;-50
2023/06/18 07:08:44;;;;;;;9.85;7.93;;;;;;;21.32;86.72;101323.59;5014807;28;20177;-48
2023/06/18 07:11:10;;;;;;;8.75;7.80;;;;;;;21.19;83.92;101309.16;5018662;28;20199;-49
2023/06/18 07:13:35;;;;;;;10.82;7.55;;;;;;;21.33;83.65;101311.69;5003890;28;20209;-48
2023/06/18 07:16:01;;;;;;;6.82;6.22;;;;;;;22.01;82.86;101303.75;5016911;28;20603;-46
2023/06/18 07:18:26;;;;;;;9.40;7.47;;;;;;;22.09;81.00;101300.44;5017531;28;20200;-47
2023/06/18 07:20:52;;;;;;;8.10;6.57;;;;;;;21.49;79.69;101299.63;5014819;28;20563;-48
2023/06/18 07:23:17;;;;;;;10.18;7.07;;;;;;;21.31;79.48;101300.03;5003442;28;20242;-49
2023/06/18 07:25:43;;;;;;;9.10;7.30;;;;;;;21.65;79.68;101297.47;5016086;28;20198;-47
2023/06/18 07:28:08;;;;;;;8.00;6.13;;;;;;;22.53;78.42;101301.50;5016355;28;20175;-50
2023/06/18 07:30:34;;;;;;;7.70;5.32;;;;;;;23.00;74.61;101263.91;5018002;28;20678;-47
2023/06/18 07:33:00;;;;;;;5.90;5.40;;;;;;;23.19;72.08;101265.97;5017018;28;20212;-49
2023/06/18 07:35:25;;;;;;;6.63;5.78;;;;;;;23.13;71.71;101263.75;5021883;28;20601;-47
2023/06/18 07:37:51;;;;;;;6.43;5.30;;;;;;;23.47;69.84;101259.03;5002583;28;20646;-48
2023/06/18 07:40:16;;;;;;;6.20;4.93;;;;;;;23.94;68.83;101254.06;5015819;28;20207;-49
2023/06/18 07:42:42;;;;;;;7.18;5.07;;;;;;;23.95;66.26;101235.78;5018874;28;20199;-48
2023/06/18 07:45:08;;;;;;;5.57;5.07;;;;;;;23.61;66.27;101228.63;5020770;28;20171;-48
2023/06/18 07:47:33;;;;;;;5.93;5.10;;;;;;;24.04;65.63;101244.03;5003338;28;20649;-49
2023/06/18 07:49:59;;;;;;;7.28;5.38;;;;;;;22.91;66.42;101251.00;5021846;28;20276;-47
2023/06/18 07:52:26;;;;;;;6.03;5.43;;;;;;;22.73;68.27;101265.19;5019697;28;20176;-48
2023/06/18 07:54:51;;;;;;;5.47;4.90;;;;;;;23.64;66.65;101249.38;5019573;28;20662;-46
2023/06/18 07:57:16;;;;;;;5.90;5.22;;;;;;;23.63;66.05;101244.88;5017457;28;20497;-46
2023/06/18 07:59:42;;;;;;;5.50;4.97;;;;;;;23.04;66.59;101246.28;5018572;28;20211;-46
2023/06/18 08:02:07;;;;;;;6.65;5.97;;;;;;;23.30;67.37;101256.88;5020730;28;20388;-48
2023/06/18 08:04:33;;;;;;;6.88;5.38;;;;;;;23.54;65.10;101232.88;5016484;28;20267;-47
2023/06/18 08:06:58;;;;;;;8.88;5.38;;;;;;;23.08;65.93;101245.03;5014792;28;20184;-47
2023/06/18 08:09:24;;;;;;;8.00;5.65;;;;;;;23.39;65.14;101232.31;5019937;28;20234;-48
2023/06/18 08:11:49;;;;;;;7.03;5.50;;;;;;;23.14;64.86;101230.84;5020970;28;20199;-46
2023/06/18 08:14:15;;;;;;;5.85;5.35;;;;;;;23.35;65.36;101230.00;5022303;28;20187;-47
2023/06/18 08:16:40;;;;;;;8.88;5.60;;;;;;;23.11;65.09;101236.59;5020149;28;20328;-46
2023/06/18 08:19:06;;;;;;;10.32;6.05;;;;;;;23.61;64.29;101225.88;5017770;28;20212;-50
2023/06/18 08:21:31;;;;;;;4.72;4.30;;;;;;;24.27;63.98;101241.97;5024563;28;20280;-47
2023/06/18 08:23:57;;;;;;;6.00;5.38;;;;;;;24.45;63.76;101231.22;5026530;23;20318;-47
2023/06/18 08:26:22;;;;;;;6.70;5.82;;;;;;;24.42;62.54;101230.63;5035550;28;20242;-46
2023/06/18 08:28:49;;;;;;;9.10;5.53;;;;;;;24.52;61.73;101226.09;5034172;28;20561;-45
2023/06/18 08:31:15;;;;;;;6.32;5.18;;;;;;;24.42;61.46;101220.56;5019725;28;20210;-46
2023/06/18 08:33:40;;;;;;;5.80;5.28;;;;;;;24.57;61.26;101214.72;5038825;28;20658;-46
2023/06/18 08:36:06;;;;;;;6.55;5.82;;;;;;;24.15;61.62;101223.91;5035983;28;20187;-47
2023/06/18 08:38:31;;;;;;;7.63;5.70;;;;;;;24.35;60.46;101216.63;5037863;28;20179;-47
2023/06/18 08:41:02;;;;;;;4.55;4.25;;;;;;;25.13;58.90;101210.47;5043777;28;20175;-51
2023/06/18 08:43:32;;;;;;;6.97;4.38;;;;;;;25.15;59.02;101202.97;5040705;28;20207;-48
2023/06/18 08:46:03;;;;;;;6.13;5.15;;;;;;;25.00;57.74;101186.94;5040083;28;20178;-50
2023/06/18 08:48:31;;;;;;;7.10;4.90;;;;;;;25.41;57.68;101184.94;5036600;28;20203;-49
2023/06/18 08:51:03;;;;;;;5.63;5.13;;;;;;;25.13;57.84;101186.66;5037212;28;20342;-48
2023/06/18 08:53:38;;;;;;;15.32;5.30;;;;;;;25.48;57.58;101179.72;5039902;28;20563;-47
2023/06/18 08:56:04;;;;;;;5.47;4.50;;;;;;;25.48;57.49;101177.84;5037758;28;20263;-48
2023/06/18 08:58:33;;;;;;;4.90;4.50;;;;;;;25.85;56.16;101163.28;5037772;28;20289;-50
2023/06/18 09:01:00;;;;;;;5.10;4.60;;;;;;;26.15;55.19;101158.59;5041199;28;20179;-48
2023/06/18 09:03:26;;;;;;;6.45;4.38;;;;;;;25.64;55.78;101168.97;5035741;28;20196;-47
2023/06/18 09:05:53;;;;;;;5.03;4.63;;;;;;;26.16;54.13;101142.97;5037059;28;20214;-50
2023/06/18 09:08:19;;;;;;;7.32;4.25;;;;;;;25.94;55.69;101164.31;5033700;28;20190;-49
2023/06/18 09:10:44;;;;;;;5.50;5.05;;;;;;;25.72;55.00;101159.16;5023117;28;20218;-49
2023/06/18 09:13:10;;;;;;;4.82;4.30;;;;;;;25.82;54.57;101141.63;5034853;28;20245;-45
2023/06/18 09:15:35;;;;;;;4.50;3.92;;;;;;;26.01;53.46;101137.97;5017931;28;20596;-48
2023/06/18 09:18:02;;;;;;;6.35;4.60;;;;;;;26.30;54.37;101148.81;5039780;28;20166;-50
2023/06/18 09:20:28;;;;;;;7.93;4.68;;;;;;;25.72;54.32;101137.19;5031339;28;20176;-51
2023/06/18 09:22:53;;;;;;;5.35;4.85;;;;;;;25.66;53.59;101127.66;5043187;28;20209;-49
2023/06/18 09:25:23;;;;;;;4.88;4.18;;;;;;;26.43;53.27;101144.81;5057971;28;20280;-47
2023/06/18 09:27:49;;;;;;;4.88;4.47;;;;;;;26.43;52.25;101131.06;5053893;28;20183;-47
2023/06/18 09:30:23;;;;;;;5.30;4.75;;;;;;;25.98;52.64;101135.53;5058690;28;20175;-46
2023/06/18 09:32:49;;;;;;;5.13;4.32;;;;;;;26.07;53.29;101142.84;5044571;28;20288;-47
2023/06/18 09:35:17;;;;;;;6.93;4.55;;;;;;;25.41;52.96;101126.47;5053766;28;20177;-48
2023/06/18 09:37:44;;;;;;;5.88;4.45;;;;;;;25.31;53.34;101123.72;5058352;28;20188;-50
2023/06/18 09:40:17;;;;;;;7.13;4.65;;;;;;;25.48;54.14;101136.69;5041997;28;20178;-49
2023/06/18 09:42:50;;;;;;;6.22;4.68;;;;;;;25.55;54.02;101141.56;5053783;28;20247;-48
2023/06/18 09:45:17;;;;;;;7.78;4.28;;;;;;;26.34;52.80;101126.50;5057373;28;20600;-48
2023/06/18 09:47:46;;;;;;;5.85;4.00;;;;;;;26.37;53.15;101153.66;5051421;28;20179;-48
2023/06/18 09:50:12;;;;;;;4.97;4.57;;;;;;;26.57;52.46;101129.72;5056551;28;20170;-48
2023/06/18 09:52:46;;;;;;;4.95;4.50;;;;;;;25.84;52.31;101112.13;5035604;28;20206;-48
2023/06/18 09:55:32;;;;;;;8.48;4.25;;;;;;;26.60;52.17;101129.41;5045044;28;20205;-47
2023/06/18 09:57:59;;;;;;;8.88;4.38;;;;;;;26.86;51.21;101115.75;5059244;28;20388;-48
2023/06/18 10:00:26;;;;;;;4.90;4.40;;;;;;;26.61;51.07;101115.53;5055634;28;20182;-47
2023/06/18 10:02:52;;;;;;;4.63;4.18;;;;;;;26.60;50.12;101119.28;5055675;28;20208;-48
2023/06/18 10:05:17;;;;;;;4.18;3.50;;;;;;;26.50;51.02;101127.56;5056164;28;20186;-48
2023/06/18 10:07:46;;;;;;;6.13;4.38;;;;;;;27.05;49.20;101104.56;5056992;28;20539;-47
2023/06/18 10:10:13;;;;;;;4.22;3.90;;;;;;;26.41;49.29;101094.66;5058138;28;20174;-46
2023/06/18 10:12:44;;;;;;;4.72;4.25;;;;;;;25.94;51.30;101111.28;5057984;28;20739;-48
2023/06/18 10:15:11;;;;;;;6.47;4.50;;;;;;;26.27;50.36;101105.16;5055140;28;20171;-47
2023/06/18 10:17:43;;;;;;;5.18;3.78;;;;;;;26.92;49.87;101106.88;5042496;28;20201;-47
2023/06/18 10:20:12;;;;;;;4.30;4.00;;;;;;;26.44;49.17;101086.09;5062953;28;20780;-48
2023/06/18 10:23:00;;;;;;;5.18;4.13;;;;;;;26.98;49.73;101099.84;5054329;28;20214;-50
2023/06/18 10:25:25;;;;;;;4.05;3.70;;;;;;;27.96;48.86;101103.28;5056706;28;20186;-47
2023/06/18 10:27:52;;;;;;;4.97;3.80;;;;;;;27.97;46.86;101080.25;5061567;28;20170;-50
2023/06/18 10:30:18;;;;;;;5.97;3.58;;;;;;;28.35;45.63;101062.25;5051736;28;20464;-49
2023/06/18 10:32:46;;;;;;;5.25;4.13;;;;;;;27.86;45.74;101058.50;5054405;28;20309;-48
2023/06/18 10:35:13;;;;;;;4.55;4.15;;;;;;;27.37;47.31;101078.34;5056417;28;20591;-48
2023/06/18 10:37:40;;;;;;;4.43;4.05;;;;;;;26.48;48.19;101076.53;5056120;28;20179;-48
2023/06/18 10:40:08;;;;;;;5.05;4.28;;;;;;;27.64;47.73;101079.16;5053655;28;20183;-47
2023/06/18 10:42:34;;;;;;;4.03;3.63;;;;;;;27.13;48.34;101079.88;5058684;28;20290;-47
2023/06/18 10:45:14;;;;;;;4.95;3.95;;;;;;;27.54;46.77;101073.81;5065661;28;20163;-48
2023/06/18 10:47:41;;;;;;;5.45;3.70;;;;;;;26.80;48.31;101088.88;5054556;28;20707;-48
2023/06/18 10:50:06;;;;;;;6.57;3.88;;;;;;;26.35;49.97;101089.75;5056365;28;20209;-49
2023/06/18 10:52:46;;;;;;;3.97;3.58;;;;;;;26.42;49.63;101090.91;5060858;28;20234;-49
2023/06/18 10:55:13;;;;;;;4.32;3.92;;;;;;;27.26;49.94;101098.72;5056904;28;20189;-49
2023/06/18 10:57:41;;;;;;;4.38;3.67;;;;;;;27.78;49.46;101097.84;5057860;28;20599;-48
2023/06/18 11:00:15;;;;;;;3.97;3.58;;;;;;;27.84;46.80;101068.78;5053696;28;20240;-45
2023/06/18 11:02:41;;;;;;;4.50;4.05;;;;;;;27.58;47.54;101066.09;5062415;28;20189;-47
2023/06/18 11:05:14;;;;;;;5.18;4.18;;;;;;;27.52;47.10;101060.19;5056240;28;20191;-48
2023/06/18 11:07:40;;;;;;;6.25;3.80;;;;;;;27.32;46.98;101053.22;5055571;28;20192;-46
2023/06/18 11:10:06;;;;;;;4.20;3.80;;;;;;;26.77;48.08;101059.81;5058617;28;20256;-48
2023/06/18 11:12:36;;;;;;;4.00;3.70;;;;;;;26.74;46.97;101051.03;5059068;28;20199;-48
2023/06/18 11:15:23;;;;;;;4.40;4.00;;;;;;;27.38;47.50;101065.47;5056212;28;20205;-46
2023/06/18 11:17:50;;;;;;;5.20;3.65;;;;;;;27.55;46.08;101053.53;5057747;28;20171;-47
2023/06/18 11:20:18;;;;;;;3.50;3.20;;;;;;;27.93;45.63;101046.66;5055986;28;20228;-47